Cincinnati, OH

7:58 AM EDT on November 01, 2014 (GMT -0400)
Newport Aquarium | Change Station
CLOSE
Current Station
Personal Weather Station
Location: Newport, KY
Elevation: 499 ft
Nearby Weather Stations
Active Advisory: Freeze Warning

Elev 499 ft 39.09 °N, 84.50 °W | Updated 4 minutes ago

Overcast
Overcast
36.0 °F
Feels Like 33 °F
N
4.0
Wind Variable Wind from WSW
Gusts 14.0 mph

Today
High -- | Low -- °F
--% Chance of Precip.
Yesterday
High -- | Low -- °F
Precip. -- in
8:05 AM 6:37 PM
Waxing Gibbous, 66% visible
Pressure 30.19 in
Visibility 10.0 miles
Clouds Overcast 2000 ft
Windchill 33 °F
Dew Point 30 °F
Humidity 77%
Rainfall 0.00 in
Snow Depth Not available.
UV 0 out of 12
Pollen .10 out of 12
Air Quality Not available.
Flu Activity Not available.
METAR KLUK 011153Z 35014G22KT 10SM OVC020 02/M02 A3018 RMK AO2 SNB02E14 SLP224 P0000 60000 70016 T00171017 10028 20017 51029

More Conditions Fewer Conditions

Pressure 30.19 in
Visibility 10.0 miles
Clouds Overcast 2000 ft
Windchill 33 °F
Dew Point 30 °F
Humidity 77%
Rainfall 0.00 in
Snow Depth Not available.
UV 0 out of 12
Pollen .10 out of 12
Air Quality Not available.
Flu Activity Not available.
METAR KLUK 011153Z 35014G22KT 10SM OVC020 02/M02 A3018 RMK AO2 SNB02E14 SLP224 P0000 60000 70016 T00171017 10028 20017 51029

More Conditions Fewer Conditions

10-Day Weather Forecast

Almanac

Astronomy

Nov. 01, 2014 Rise Set
Actual Time
Civil Twilight
Nautical Twilight
Astronomical Twilight
Moon
Length of Visible Light
Length of Day
Tomorrow will be .
, % of the Moon is Illuminated

Today's Extremes

State Highs State Lows

Community

WunderPhotos

Upload Photos

1,766,903 photos uploaded!

WunderBlogs® & News

Nearby

Air Quality

  Air Quality AQ Index Pollutant
Not available.

Snow Depth

Station Depth Elevation

Earthquake Activity

City Distance Mag. Time & Date
Minimum magnitude displayed is 2.5.

Coastal Water Temperatures

Place Temperature

Nearby Weather Stations